sensor_id;sensor_type;location;lat;lon;timestamp;pressure;altitude;pressure_sealevel;temperature;humidity
50430;BME280;36359;41.556;-8.418;2023-07-28T00:00:27;100206.56;;;22.18;69.37
50430;BME280;36359;41.556;-8.418;2023-07-28T00:02:52;100210.88;;;21.89;70.65
50430;BME280;36359;41.556;-8.418;2023-07-28T00:05:18;100212.91;;;21.50;72.75
50430;BME280;36359;41.556;-8.418;2023-07-28T00:07:44;100211.25;;;21.43;73.20
50430;BME280;36359;41.556;-8.418;2023-07-28T00:10:10;100219.47;;;21.49;73.21
50430;BME280;36359;41.556;-8.418;2023-07-28T00:12:36;100213.81;;;21.69;72.64
50430;BME280;36359;41.556;-8.418;2023-07-28T00:15:01;100212.00;;;21.57;72.98
50430;BME280;36359;41.556;-8.418;2023-07-28T00:17:27;100209.97;;;21.70;73.68
50430;BME280;36359;41.556;-8.418;2023-07-28T00:19:53;100215.78;;;21.87;73.41
50430;BME280;36359;41.556;-8.418;2023-07-28T00:22:18;100213.19;;;21.92;72.89
50430;BME280;36359;41.556;-8.418;2023-07-28T00:24:44;100199.78;;;21.71;73.47
50430;BME280;36359;41.556;-8.418;2023-07-28T00:27:10;100195.59;;;21.62;74.28
50430;BME280;36359;41.556;-8.418;2023-07-28T00:29:38;100195.59;;;21.62;74.73
50430;BME280;36359;41.556;-8.418;2023-07-28T00:32:04;100195.44;;;21.57;74.87
50430;BME280;36359;41.556;-8.418;2023-07-28T00:34:29;100195.53;;;21.43;75.27
50430;BME280;36359;41.556;-8.418;2023-07-28T00:36:55;100202.16;;;21.42;75.96
50430;BME280;36359;41.556;-8.418;2023-07-28T00:39:21;100201.31;;;21.42;75.98
50430;BME280;36359;41.556;-8.418;2023-07-28T00:41:46;100195.34;;;21.38;75.60
50430;BME280;36359;41.556;-8.418;2023-07-28T00:44:12;100194.63;;;21.18;76.80
50430;BME280;36359;41.556;-8.418;2023-07-28T00:46:40;100196.84;;;21.02;77.60
50430;BME280;36359;41.556;-8.418;2023-07-28T00:49:06;100191.31;;;21.09;77.38
50430;BME280;36359;41.556;-8.418;2023-07-28T00:51:31;100194.47;;;21.13;76.85
50430;BME280;36359;41.556;-8.418;2023-07-28T00:53:57;100189.56;;;21.15;77.06
50430;BME280;36359;41.556;-8.418;2023-07-28T00:56:24;100196.78;;;21.16;77.00
50430;BME280;36359;41.556;-8.418;2023-07-28T00:58:51;100189.94;;;21.25;76.41
50430;BME280;36359;41.556;-8.418;2023-07-28T01:01:16;100198.72;;;21.08;76.76
50430;BME280;36359;41.556;-8.418;2023-07-28T01:03:42;100200.09;;;20.54;79.87
50430;BME280;36359;41.556;-8.418;2023-07-28T01:06:24;100195.38;;;20.61;79.77
50430;BME280;36359;41.556;-8.418;2023-07-28T01:08:54;100185.28;;;20.87;78.21
50430;BME280;36359;41.556;-8.418;2023-07-28T01:11:22;100183.94;;;20.96;77.80
50430;BME280;36359;41.556;-8.418;2023-07-28T01:13:47;100185.47;;;20.92;78.12
50430;BME280;36359;41.556;-8.418;2023-07-28T01:16:13;100190.16;;;20.92;77.68
50430;BME280;36359;41.556;-8.418;2023-07-28T01:18:40;100184.28;;;20.75;79.15
50430;BME280;36359;41.556;-8.418;2023-07-28T01:21:08;100184.25;;;20.81;78.85
50430;BME280;36359;41.556;-8.418;2023-07-28T01:23:46;100186.09;;;20.94;78.00
50430;BME280;36359;41.556;-8.418;2023-07-28T01:26:16;100187.59;;;20.90;78.27
50430;BME280;36359;41.556;-8.418;2023-07-28T01:28:43;100176.13;;;20.93;78.76
50430;BME280;36359;41.556;-8.418;2023-07-28T01:31:09;100183.69;;;21.04;77.56
50430;BME280;36359;41.556;-8.418;2023-07-28T01:33:35;100183.06;;;21.02;77.06
50430;BME280;36359;41.556;-8.418;2023-07-28T01:36:02;100182.91;;;20.97;77.30
50430;BME280;36359;41.556;-8.418;2023-07-28T01:38:28;100185.66;;;20.97;77.24
50430;BME280;36359;41.556;-8.418;2023-07-28T01:40:54;100182.22;;;20.63;79.17
50430;BME280;36359;41.556;-8.418;2023-07-28T01:43:20;100184.09;;;20.70;78.81
50430;BME280;36359;41.556;-8.418;2023-07-28T01:45:46;100178.16;;;20.73;78.26
50430;BME280;36359;41.556;-8.418;2023-07-28T01:48:11;100177.25;;;20.79;78.68
50430;BME280;36359;41.556;-8.418;2023-07-28T01:50:37;100171.88;;;20.97;77.86
50430;BME280;36359;41.556;-8.418;2023-07-28T01:53:07;100173.94;;;21.02;76.75
50430;BME280;36359;41.556;-8.418;2023-07-28T01:55:33;100175.06;;;20.94;76.52
50430;BME280;36359;41.556;-8.418;2023-07-28T01:58:00;100168.53;;;20.82;77.51
50430;BME280;36359;41.556;-8.418;2023-07-28T02:00:27;100170.03;;;20.84;77.24
50430;BME280;36359;41.556;-8.418;2023-07-28T02:02:53;100171.28;;;20.89;77.02
50430;BME280;36359;41.556;-8.418;2023-07-28T02:05:20;100163.91;;;20.82;77.73
50430;BME280;36359;41.556;-8.418;2023-07-28T02:10:14;100163.41;;;20.92;76.97
50430;BME280;36359;41.556;-8.418;2023-07-28T02:12:40;100162.16;;;20.88;76.86
50430;BME280;36359;41.556;-8.418;2023-07-28T02:15:06;100163.84;;;20.89;76.85
50430;BME280;36359;41.556;-8.418;2023-07-28T02:17:33;100157.94;;;20.85;77.16
50430;BME280;36359;41.556;-8.418;2023-07-28T02:19:58;100151.13;;;20.88;77.51
50430;BME280;36359;41.556;-8.418;2023-07-28T02:22:24;100148.47;;;21.06;76.83
50430;BME280;36359;41.556;-8.418;2023-07-28T02:24:50;100152.06;;;21.07;76.54
50430;BME280;36359;41.556;-8.418;2023-07-28T02:27:15;100147.13;;;21.16;76.52
50430;BME280;36359;41.556;-8.418;2023-07-28T02:29:41;100139.31;;;21.13;76.23
50430;BME280;36359;41.556;-8.418;2023-07-28T02:32:10;100143.69;;;20.50;79.12
50430;BME280;36359;41.556;-8.418;2023-07-28T02:34:36;100139.56;;;20.14;81.80
50430;BME280;36359;41.556;-8.418;2023-07-28T02:37:02;100145.06;;;20.14;82.11
50430;BME280;36359;41.556;-8.418;2023-07-28T02:39:28;100141.81;;;20.37;81.37
50430;BME280;36359;41.556;-8.418;2023-07-28T02:41:54;100142.53;;;20.19;82.50
50430;BME280;36359;41.556;-8.418;2023-07-28T02:44:19;100144.22;;;20.14;83.35
50430;BME280;36359;41.556;-8.418;2023-07-28T02:46:45;100140.53;;;20.53;81.72
50430;BME280;36359;41.556;-8.418;2023-07-28T02:49:11;100143.16;;;20.73;81.23
50430;BME280;36359;41.556;-8.418;2023-07-28T02:51:37;100142.31;;;21.04;79.17
50430;BME280;36359;41.556;-8.418;2023-07-28T02:54:02;100138.22;;;21.14;78.45
50430;BME280;36359;41.556;-8.418;2023-07-28T02:56:29;100140.47;;;20.98;78.75
50430;BME280;36359;41.556;-8.418;2023-07-28T02:58:54;100138.56;;;20.60;80.23
50430;BME280;36359;41.556;-8.418;2023-07-28T03:01:20;100131.03;;;20.36;81.07
50430;BME280;36359;41.556;-8.418;2023-07-28T03:03:46;100135.44;;;20.43;80.89
50430;BME280;36359;41.556;-8.418;2023-07-28T03:06:13;100133.19;;;20.20;82.22
50430;BME280;36359;41.556;-8.418;2023-07-28T03:08:41;100128.72;;;20.33;81.67
50430;BME280;36359;41.556;-8.418;2023-07-28T03:11:25;100126.75;;;20.53;81.08
50430;BME280;36359;41.556;-8.418;2023-07-28T03:13:50;100124.59;;;20.55;80.79
50430;BME280;36359;41.556;-8.418;2023-07-28T03:16:16;100120.00;;;20.36;81.54
50430;BME280;36359;41.556;-8.418;2023-07-28T03:18:42;100118.50;;;20.40;81.89
50430;BME280;36359;41.556;-8.418;2023-07-28T03:21:11;100120.00;;;20.36;81.56
50430;BME280;36359;41.556;-8.418;2023-07-28T03:23:36;100122.53;;;20.37;81.52
50430;BME280;36359;41.556;-8.418;2023-07-28T03:26:02;100114.66;;;20.41;81.34
50430;BME280;36359;41.556;-8.418;2023-07-28T03:28:28;100117.59;;;20.59;81.50
50430;BME280;36359;41.556;-8.418;2023-07-28T03:30:54;100119.66;;;20.71;80.43
50430;BME280;36359;41.556;-8.418;2023-07-28T03:33:19;100128.75;;;20.71;80.09
50430;BME280;36359;41.556;-8.418;2023-07-28T03:35:45;100120.31;;;20.66;80.40
50430;BME280;36359;41.556;-8.418;2023-07-28T03:38:12;100113.06;;;20.72;79.71
50430;BME280;36359;41.556;-8.418;2023-07-28T03:40:39;100125.56;;;20.74;80.09
50430;BME280;36359;41.556;-8.418;2023-07-28T03:43:05;100113.00;;;20.78;79.23
50430;BME280;36359;41.556;-8.418;2023-07-28T03:45:31;100114.66;;;20.86;78.92
50430;BME280;36359;41.556;-8.418;2023-07-28T03:47:57;100110.84;;;20.87;78.91
50430;BME280;36359;41.556;-8.418;2023-07-28T03:50:22;100112.97;;;20.85;79.49
50430;BME280;36359;41.556;-8.418;2023-07-28T03:52:49;100104.97;;;20.77;79.72
50430;BME280;36359;41.556;-8.418;2023-07-28T03:55:15;100107.28;;;20.80;80.17
50430;BME280;36359;41.556;-8.418;2023-07-28T03:57:41;100110.19;;;20.85;79.09
50430;BME280;36359;41.556;-8.418;2023-07-28T04:00:07;100110.84;;;20.87;79.35
50430;BME280;36359;41.556;-8.418;2023-07-28T04:02:38;100100.25;;;20.84;79.64
50430;BME280;36359;41.556;-8.418;2023-07-28T04:05:04;100113.00;;;20.78;79.85
50430;BME280;36359;41.556;-8.418;2023-07-28T04:07:29;100107.75;;;21.02;79.02
50430;BME280;36359;41.556;-8.418;2023-07-28T04:09:55;100111.00;;;20.92;79.93
50430;BME280;36359;41.556;-8.418;2023-07-28T04:12:21;100097.50;;;20.84;79.93
50430;BME280;36359;41.556;-8.418;2023-07-28T04:14:46;100099.47;;;20.77;80.14
50430;BME280;36359;41.556;-8.418;2023-07-28T04:17:12;100098.13;;;20.86;80.05
50430;BME280;36359;41.556;-8.418;2023-07-28T04:19:38;100096.78;;;20.95;79.31
50430;BME280;36359;41.556;-8.418;2023-07-28T04:22:04;100097.75;;;21.07;78.48
50430;BME280;36359;41.556;-8.418;2023-07-28T04:24:31;100098.56;;;20.83;78.82
50430;BME280;36359;41.556;-8.418;2023-07-28T04:26:58;100108.31;;;20.47;81.17
50430;BME280;36359;41.556;-8.418;2023-07-28T04:29:23;100109.63;;;20.31;82.09
50430;BME280;36359;41.556;-8.418;2023-07-28T04:31:50;100106.06;;;20.24;82.11
50430;BME280;36359;41.556;-8.418;2023-07-28T04:34:22;100114.53;;;20.23;82.70
50430;BME280;36359;41.556;-8.418;2023-07-28T04:37:02;100113.69;;;20.22;83.38
50430;BME280;36359;41.556;-8.418;2023-07-28T04:39:39;100105.75;;;20.01;85.42
50430;BME280;36359;41.556;-8.418;2023-07-28T04:42:04;100118.00;;;20.05;85.37
50430;BME280;36359;41.556;-8.418;2023-07-28T04:44:30;100112.16;;;19.74;86.69
50430;BME280;36359;41.556;-8.418;2023-07-28T04:47:00;100111.25;;;19.94;86.06
50430;BME280;36359;41.556;-8.418;2023-07-28T04:49:26;100105.28;;;20.10;85.05
50430;BME280;36359;41.556;-8.418;2023-07-28T04:52:07;100113.06;;;20.27;84.54
50430;BME280;36359;41.556;-8.418;2023-07-28T04:54:39;100121.59;;;20.12;85.27
50430;BME280;36359;41.556;-8.418;2023-07-28T04:57:05;100114.97;;;20.19;85.21
50430;BME280;36359;41.556;-8.418;2023-07-28T04:59:33;100112.91;;;20.08;86.16
50430;BME280;36359;41.556;-8.418;2023-07-28T05:01:59;100108.38;;;20.27;85.12
50430;BME280;36359;41.556;-8.418;2023-07-28T05:04:25;100108.91;;;20.49;83.76
50430;BME280;36359;41.556;-8.418;2023-07-28T05:06:51;100108.50;;;20.52;83.55
50430;BME280;36359;41.556;-8.418;2023-07-28T05:09:17;100107.16;;;20.61;83.20
50430;BME280;36359;41.556;-8.418;2023-07-28T05:11:43;100101.00;;;20.66;82.79
50430;BME280;36359;41.556;-8.418;2023-07-28T05:14:09;100095.25;;;20.68;82.90
50430;BME280;36359;41.556;-8.418;2023-07-28T05:16:35;100093.13;;;20.70;82.88
50430;BME280;36359;41.556;-8.418;2023-07-28T05:19:23;100089.00;;;20.54;84.04
50430;BME280;36359;41.556;-8.418;2023-07-28T05:21:55;100096.59;;;20.58;83.18
50430;BME280;36359;41.556;-8.418;2023-07-28T05:24:29;100095.81;;;20.38;84.23
50430;BME280;36359;41.556;-8.418;2023-07-28T05:26:54;100105.75;;;20.52;83.79
50430;BME280;36359;41.556;-8.418;2023-07-28T05:29:20;100097.91;;;19.98;86.66
50430;BME280;36359;41.556;-8.418;2023-07-28T05:31:47;100098.88;;;20.16;85.74
50430;BME280;36359;41.556;-8.418;2023-07-28T05:34:21;100107.72;;;20.38;84.33
50430;BME280;36359;41.556;-8.418;2023-07-28T05:36:47;100097.09;;;20.42;84.01
50430;BME280;36359;41.556;-8.418;2023-07-28T05:39:13;100096.91;;;20.75;82.48
50430;BME280;36359;41.556;-8.418;2023-07-28T05:41:43;100091.53;;;20.87;80.56
50430;BME280;36359;41.556;-8.418;2023-07-28T05:44:11;100098.69;;;20.63;81.42
50430;BME280;36359;41.556;-8.418;2023-07-28T05:46:37;100106.56;;;20.59;81.66
50430;BME280;36359;41.556;-8.418;2023-07-28T05:49:02;100109.59;;;20.45;82.45
50430;BME280;36359;41.556;-8.418;2023-07-28T05:51:29;100108.75;;;20.37;83.70
50430;BME280;36359;41.556;-8.418;2023-07-28T05:53:55;100101.84;;;20.22;84.84
50430;BME280;36359;41.556;-8.418;2023-07-28T05:56:21;100109.72;;;20.11;85.95
50430;BME280;36359;41.556;-8.418;2023-07-28T05:58:47;100107.50;;;20.33;85.12
50430;BME280;36359;41.556;-8.418;2023-07-28T06:01:13;100104.34;;;20.30;85.57
50430;BME280;36359;41.556;-8.418;2023-07-28T06:03:58;100108.22;;;20.15;86.34
50430;BME280;36359;41.556;-8.418;2023-07-28T06:06:27;100107.41;;;20.02;87.51
50430;BME280;36359;41.556;-8.418;2023-07-28T06:08:53;100115.09;;;19.86;88.77
50430;BME280;36359;41.556;-8.418;2023-07-28T06:11:20;100117.63;;;19.88;88.83
50430;BME280;36359;41.556;-8.418;2023-07-28T06:13:46;100122.41;;;20.19;86.90
50430;BME280;36359;41.556;-8.418;2023-07-28T06:16:16;100119.63;;;20.26;86.63
50430;BME280;36359;41.556;-8.418;2023-07-28T06:18:42;100126.50;;;20.48;84.94
50430;BME280;36359;41.556;-8.418;2023-07-28T06:21:14;100144.47;;;20.71;83.61
50430;BME280;36359;41.556;-8.418;2023-07-28T06:23:40;100138.13;;;20.63;84.27
50430;BME280;36359;41.556;-8.418;2023-07-28T06:26:06;100133.09;;;20.40;85.12
50430;BME280;36359;41.556;-8.418;2023-07-28T06:30:58;100145.06;;;20.73;82.73
50430;BME280;36359;41.556;-8.418;2023-07-28T06:33:27;100144.19;;;21.10;80.34
50430;BME280;36359;41.556;-8.418;2023-07-28T06:35:53;100145.41;;;21.15;80.20
50430;BME280;36359;41.556;-8.418;2023-07-28T06:38:19;100144.03;;;20.74;82.48
50430;BME280;36359;41.556;-8.418;2023-07-28T06:40:44;100148.81;;;20.85;82.20
50430;BME280;36359;41.556;-8.418;2023-07-28T06:43:10;100155.78;;;20.94;81.58
50430;BME280;36359;41.556;-8.418;2023-07-28T06:45:37;100161.00;;;21.02;81.04
50430;BME280;36359;41.556;-8.418;2023-07-28T06:48:02;100150.34;;;21.13;79.88
50430;BME280;36359;41.556;-8.418;2023-07-28T06:50:29;100164.06;;;21.19;79.40
50430;BME280;36359;41.556;-8.418;2023-07-28T06:52:55;100163.22;;;21.50;77.85
50430;BME280;36359;41.556;-8.418;2023-07-28T06:55:23;100161.06;;;21.52;76.92
50430;BME280;36359;41.556;-8.418;2023-07-28T06:57:49;100171.53;;;21.44;78.33
50430;BME280;36359;41.556;-8.418;2023-07-28T07:00:16;100173.69;;;21.35;79.19
50430;BME280;36359;41.556;-8.418;2023-07-28T07:02:44;100171.63;;;21.30;78.80
50430;BME280;36359;41.556;-8.418;2023-07-28T07:05:10;100172.41;;;21.44;78.61
50430;BME280;36359;41.556;-8.418;2023-07-28T07:07:37;100178.66;;;21.58;77.30
50430;BME280;36359;41.556;-8.418;2023-07-28T07:10:04;100173.94;;;21.65;76.77
50430;BME280;36359;41.556;-8.418;2023-07-28T07:12:31;100185.00;;;21.84;76.50
50430;BME280;36359;41.556;-8.418;2023-07-28T07:14:57;100185.41;;;22.06;74.93
50430;BME280;36359;41.556;-8.418;2023-07-28T07:17:23;100178.13;;;22.11;74.65
50430;BME280;36359;41.556;-8.418;2023-07-28T07:19:48;100174.81;;;22.03;75.04
50430;BME280;36359;41.556;-8.418;2023-07-28T07:22:14;100173.34;;;22.25;74.01
50430;BME280;36359;41.556;-8.418;2023-07-28T07:24:40;100165.50;;;22.22;74.01
50430;BME280;36359;41.556;-8.418;2023-07-28T07:27:06;100169.81;;;22.36;73.56
50430;BME280;36359;41.556;-8.418;2023-07-28T07:29:32;100165.66;;;22.27;73.77
50430;BME280;36359;41.556;-8.418;2023-07-28T07:31:58;100168.41;;;22.45;72.81
50430;BME280;36359;41.556;-8.418;2023-07-28T07:34:23;100172.38;;;22.50;72.41
50430;BME280;36359;41.556;-8.418;2023-07-28T07:36:49;100171.00;;;22.40;72.89
50430;BME280;36359;41.556;-8.418;2023-07-28T07:39:15;100181.00;;;22.60;72.23
50430;BME280;36359;41.556;-8.418;2023-07-28T07:41:41;100159.63;;;22.67;71.54
50430;BME280;36359;41.556;-8.418;2023-07-28T07:44:07;100170.66;;;22.85;70.18
50430;BME280;36359;41.556;-8.418;2023-07-28T07:46:33;100169.19;;;22.83;70.29
50430;BME280;36359;41.556;-8.418;2023-07-28T07:48:58;100171.16;;;22.64;70.99
50430;BME280;36359;41.556;-8.418;2023-07-28T07:51:24;100163.16;;;22.56;70.82
50430;BME280;36359;41.556;-8.418;2023-07-28T07:53:50;100168.09;;;22.35;71.78
50430;BME280;36359;41.556;-8.418;2023-07-28T07:56:16;100161.97;;;22.33;71.89
50430;BME280;36359;41.556;-8.418;2023-07-28T07:58:42;100160.59;;;22.42;71.77
50430;BME280;36359;41.556;-8.418;2023-07-28T08:01:08;100173.31;;;22.62;70.95
50430;BME280;36359;41.556;-8.418;2023-07-28T08:03:34;100178.38;;;22.65;71.43
50430;BME280;36359;41.556;-8.418;2023-07-28T08:06:01;100166.78;;;22.38;71.91
50430;BME280;36359;41.556;-8.418;2023-07-28T08:08:27;100176.91;;;22.44;72.02
50430;BME280;36359;41.556;-8.418;2023-07-28T08:10:53;100180.84;;;22.36;72.61
50430;BME280;36359;41.556;-8.418;2023-07-28T08:13:19;100180.41;;;22.39;73.31
50430;BME280;36359;41.556;-8.418;2023-07-28T08:15:45;100175.84;;;22.63;72.18
50430;BME280;36359;41.556;-8.418;2023-07-28T08:18:12;100178.97;;;22.85;70.93
50430;BME280;36359;41.556;-8.418;2023-07-28T08:20:38;100184.94;;;22.82;70.98
50430;BME280;36359;41.556;-8.418;2023-07-28T08:23:04;100189.84;;;22.99;70.29
50430;BME280;36359;41.556;-8.418;2023-07-28T08:25:30;100188.91;;;23.05;69.99
50430;BME280;36359;41.556;-8.418;2023-07-28T08:27:55;100189.63;;;23.00;70.51
50430;BME280;36359;41.556;-8.418;2023-07-28T08:30:21;100190.03;;;22.67;71.26
50430;BME280;36359;41.556;-8.418;2023-07-28T08:32:47;100190.84;;;22.86;70.55
50430;BME280;36359;41.556;-8.418;2023-07-28T08:35:12;100186.00;;;22.51;71.82
50430;BME280;36359;41.556;-8.418;2023-07-28T08:37:38;100173.25;;;22.99;70.26
50430;BME280;36359;41.556;-8.418;2023-07-28T08:40:04;100167.06;;;23.15;69.22
50430;BME280;36359;41.556;-8.418;2023-07-28T08:42:36;100174.75;;;23.13;69.06
50430;BME280;36359;41.556;-8.418;2023-07-28T08:45:03;100175.69;;;23.07;69.73
50430;BME280;36359;41.556;-8.418;2023-07-28T08:47:30;100177.88;;;23.17;69.77
50430;BME280;36359;41.556;-8.418;2023-07-28T08:49:56;100176.53;;;23.07;69.81
50430;BME280;36359;41.556;-8.418;2023-07-28T08:52:22;100176.09;;;22.92;70.35
50430;BME280;36359;41.556;-8.418;2023-07-28T08:54:49;100179.25;;;22.96;70.07
50430;BME280;36359;41.556;-8.418;2023-07-28T08:57:15;100173.28;;;23.10;69.43
50430;BME280;36359;41.556;-8.418;2023-07-28T08:59:41;100176.81;;;23.29;69.12
50430;BME280;36359;41.556;-8.418;2023-07-28T09:02:15;100174.44;;;23.33;68.52
50430;BME280;36359;41.556;-8.418;2023-07-28T09:04:46;100171.78;;;23.38;68.70
50430;BME280;36359;41.556;-8.418;2023-07-28T09:07:12;100173.84;;;23.43;68.15
50430;BME280;36359;41.556;-8.418;2023-07-28T09:09:38;100174.38;;;23.75;66.81
50430;BME280;36359;41.556;-8.418;2023-07-28T09:12:04;100162.44;;;23.63;67.13
50430;BME280;36359;41.556;-8.418;2023-07-28T09:14:30;100175.00;;;23.77;66.71
50430;BME280;36359;41.556;-8.418;2023-07-28T09:17:09;100164.59;;;23.49;68.15
50430;BME280;36359;41.556;-8.418;2023-07-28T09:19:49;100169.06;;;23.73;66.99
50430;BME280;36359;41.556;-8.418;2023-07-28T09:22:15;100179.66;;;24.00;66.19
50430;BME280;36359;41.556;-8.418;2023-07-28T09:24:40;100170.78;;;23.98;66.32
50430;BME280;36359;41.556;-8.418;2023-07-28T09:27:06;100169.03;;;24.20;65.18
50430;BME280;36359;41.556;-8.418;2023-07-28T09:29:32;100171.19;;;24.42;63.79
50430;BME280;36359;41.556;-8.418;2023-07-28T09:32:05;100180.13;;;24.44;64.64
50430;BME280;36359;41.556;-8.418;2023-07-28T09:34:31;100181.22;;;24.31;64.66
50430;BME280;36359;41.556;-8.418;2023-07-28T09:36:59;100180.38;;;24.31;64.51
50430;BME280;36359;41.556;-8.418;2023-07-28T09:39:25;100184.69;;;24.38;64.17
50430;BME280;36359;41.556;-8.418;2023-07-28T09:41:51;100180.13;;;24.44;64.19
50430;BME280;36359;41.556;-8.418;2023-07-28T09:44:17;100191.38;;;24.02;66.49
50430;BME280;36359;41.556;-8.418;2023-07-28T09:49:12;100186.78;;;24.08;66.07
50430;BME280;36359;41.556;-8.418;2023-07-28T09:51:40;100186.63;;;24.38;66.01
50430;BME280;36359;41.556;-8.418;2023-07-28T09:54:12;100192.84;;;24.68;63.90
50430;BME280;36359;41.556;-8.418;2023-07-28T09:56:45;100188.22;;;24.86;62.87
50430;BME280;36359;41.556;-8.418;2023-07-28T09:59:13;100187.50;;;25.07;62.06
50430;BME280;36359;41.556;-8.418;2023-07-28T10:01:44;100189.97;;;25.21;61.08
50430;BME280;36359;41.556;-8.418;2023-07-28T10:04:10;100181.09;;;25.19;62.02
50430;BME280;36359;41.556;-8.418;2023-07-28T10:06:36;100186.22;;;24.98;61.52
50430;BME280;36359;41.556;-8.418;2023-07-28T10:09:04;100193.09;;;24.96;62.66
50430;BME280;36359;41.556;-8.418;2023-07-28T10:11:34;100188.59;;;25.06;62.02
50430;BME280;36359;41.556;-8.418;2023-07-28T10:13:59;100199.63;;;25.30;60.05
50430;BME280;36359;41.556;-8.418;2023-07-28T10:16:37;100205.56;;;25.22;61.67
50430;BME280;36359;41.556;-8.418;2023-07-28T10:19:04;100204.59;;;24.87;63.05
50430;BME280;36359;41.556;-8.418;2023-07-28T10:21:30;100208.38;;;24.81;63.15
50430;BME280;36359;41.556;-8.418;2023-07-28T10:23:58;100207.09;;;25.01;62.19
50430;BME280;36359;41.556;-8.418;2023-07-28T10:26:31;100201.69;;;25.23;61.56
50430;BME280;36359;41.556;-8.418;2023-07-28T10:29:11;100198.44;;;25.43;60.13
50430;BME280;36359;41.556;-8.418;2023-07-28T10:31:48;100201.59;;;25.18;61.92
50430;BME280;36359;41.556;-8.418;2023-07-28T10:34:16;100193.84;;;24.91;62.71
50430;BME280;36359;41.556;-8.418;2023-07-28T10:36:43;100190.97;;;25.14;62.15
50430;BME280;36359;41.556;-8.418;2023-07-28T10:39:17;100195.06;;;25.41;61.46
50430;BME280;36359;41.556;-8.418;2023-07-28T10:42:04;100192.81;;;25.54;61.39
50430;BME280;36359;41.556;-8.418;2023-07-28T10:44:31;100184.28;;;25.27;60.81
50430;BME280;36359;41.556;-8.418;2023-07-28T10:46:57;100183.38;;;25.72;61.81
50430;BME280;36359;41.556;-8.418;2023-07-28T10:49:26;100186.50;;;26.10;59.85
50430;BME280;36359;41.556;-8.418;2023-07-28T10:51:52;100186.91;;;26.01;58.62
50430;BME280;36359;41.556;-8.418;2023-07-28T10:54:18;100189.22;;;26.26;57.31
50430;BME280;36359;41.556;-8.418;2023-07-28T10:56:46;100193.31;;;26.41;57.60
50430;BME280;36359;41.556;-8.418;2023-07-28T10:59:13;100194.13;;;26.58;56.38
50430;BME280;36359;41.556;-8.418;2023-07-28T11:01:40;100197.09;;;26.73;55.81
50430;BME280;36359;41.556;-8.418;2023-07-28T11:04:19;100185.88;;;26.90;56.01
50430;BME280;36359;41.556;-8.418;2023-07-28T11:06:50;100190.91;;;26.93;56.18
50430;BME280;36359;41.556;-8.418;2023-07-28T11:09:18;100195.50;;;27.05;56.45
50430;BME280;36359;41.556;-8.418;2023-07-28T11:11:45;100192.06;;;26.10;59.22
50430;BME280;36359;41.556;-8.418;2023-07-28T11:14:11;100188.78;;;25.62;60.52
50430;BME280;36359;41.556;-8.418;2023-07-28T11:16:39;100197.38;;;25.94;58.68
50430;BME280;36359;41.556;-8.418;2023-07-28T11:19:12;100186.25;;;25.60;61.06
50430;BME280;36359;41.556;-8.418;2023-07-28T11:21:43;100190.22;;;25.98;60.13
50430;BME280;36359;41.556;-8.418;2023-07-28T11:24:10;100186.22;;;26.50;57.64
50430;BME280;36359;41.556;-8.418;2023-07-28T11:26:37;100180.13;;;26.53;58.02
50430;BME280;36359;41.556;-8.418;2023-07-28T11:29:04;100185.56;;;26.65;57.15
50430;BME280;36359;41.556;-8.418;2023-07-28T11:31:30;100191.94;;;26.43;58.75
50430;BME280;36359;41.556;-8.418;2023-07-28T11:33:56;100181.09;;;26.42;58.13
50430;BME280;36359;41.556;-8.418;2023-07-28T11:36:31;100178.13;;;26.70;56.88
50430;BME280;36359;41.556;-8.418;2023-07-28T11:39:00;100181.88;;;26.81;56.61
50430;BME280;36359;41.556;-8.418;2023-07-28T11:41:26;100192.09;;;26.98;55.44
50430;BME280;36359;41.556;-8.418;2023-07-28T11:43:53;100178.63;;;26.89;56.42
50430;BME280;36359;41.556;-8.418;2023-07-28T11:46:38;100176.59;;;27.07;56.01
50430;BME280;36359;41.556;-8.418;2023-07-28T11:49:15;100182.19;;;27.12;54.38
50430;BME280;36359;41.556;-8.418;2023-07-28T11:51:49;100175.63;;;27.18;55.01
50430;BME280;36359;41.556;-8.418;2023-07-28T11:54:16;100176.25;;;27.25;55.18
50430;BME280;36359;41.556;-8.418;2023-07-28T11:56:43;100180.00;;;27.41;56.14
50430;BME280;36359;41.556;-8.418;2023-07-28T11:59:10;100168.25;;;27.07;55.09
50430;BME280;36359;41.556;-8.418;2023-07-28T12:02:04;100169.16;;;26.90;57.45
50430;BME280;36359;41.556;-8.418;2023-07-28T12:04:32;100166.69;;;26.94;56.94
50430;BME280;36359;41.556;-8.418;2023-07-28T12:07:10;100168.03;;;26.86;57.51
50430;BME280;36359;41.556;-8.418;2023-07-28T12:12:12;100163.19;;;27.04;57.41
50430;BME280;36359;41.556;-8.418;2023-07-28T12:14:38;100163.88;;;26.89;59.16
50430;BME280;36359;41.556;-8.418;2023-07-28T12:17:18;100162.19;;;26.88;58.62
50430;BME280;36359;41.556;-8.418;2023-07-28T12:20:07;100169.31;;;27.28;56.09
50430;BME280;36359;41.556;-8.418;2023-07-28T12:22:43;100167.84;;;27.52;55.24
50430;BME280;36359;41.556;-8.418;2023-07-28T12:25:10;100159.94;;;27.76;56.03
50430;BME280;36359;41.556;-8.418;2023-07-28T12:27:36;100172.69;;;27.67;55.63
50430;BME280;36359;41.556;-8.418;2023-07-28T12:30:03;100156.78;;;27.95;54.22
50430;BME280;36359;41.556;-8.418;2023-07-28T12:32:29;100160.63;;;27.89;53.54
50430;BME280;36359;41.556;-8.418;2023-07-28T12:34:55;100154.53;;;27.97;53.74
50430;BME280;36359;41.556;-8.418;2023-07-28T12:37:20;100160.19;;;28.07;54.17
50430;BME280;36359;41.556;-8.418;2023-07-28T12:39:47;100162.47;;;28.20;54.67
50430;BME280;36359;41.556;-8.418;2023-07-28T12:42:14;100154.44;;;27.81;55.16
50430;BME280;36359;41.556;-8.418;2023-07-28T12:44:41;100155.81;;;27.47;56.13
50430;BME280;36359;41.556;-8.418;2023-07-28T12:47:07;100144.59;;;27.36;57.14
50430;BME280;36359;41.556;-8.418;2023-07-28T12:49:33;100147.50;;;27.52;54.72
50430;BME280;36359;41.556;-8.418;2023-07-28T12:52:05;100148.53;;;27.40;55.32